Time;durP1;ratioP1;P1;durP2;ratioP2;P2;SDS_P1;SDS_P2;PMS_P1;PMS_P2;Temp;Humidity;BMP_temperature;BMP_pressure;BME280_temperature;BME280_humidity;BME280_pressure;Samples;Min_cycle;Max_cycle;Signal;HPM_P1;HPM_P2
2022/07/31 00:00:34;;;;;;;9.15;3.88;;;;;;;17.87;100.00;100855.16;5196442;28;20122;-76
2022/07/31 00:03:05;;;;;;;9.27;4.05;;;;;;;17.68;100.00;100860.69;5198637;28;20052;-76
2022/07/31 00:05:36;;;;;;;12.90;4.13;;;;;;;17.74;100.00;100862.97;5196499;28;20033;-76
2022/07/31 00:08:07;;;;;;;6.38;4.28;;;;;;;17.55;100.00;100856.22;5179430;28;20040;-74
2022/07/31 00:10:37;;;;;;;9.73;4.32;;;;;;;17.50;100.00;100860.94;5196366;28;20331;-75
2022/07/31 00:13:07;;;;;;;8.35;4.30;;;;;;;17.57;100.00;100852.56;5196261;28;20119;-76
2022/07/31 00:15:38;;;;;;;9.65;4.32;;;;;;;17.69;100.00;100851.81;5197595;28;20026;-76
2022/07/31 00:18:08;;;;;;;7.05;4.78;;;;;;;17.78;100.00;100850.41;5195954;28;20435;-76
2022/07/31 00:20:39;;;;;;;7.22;4.15;;;;;;;17.87;100.00;100844.56;5195833;28;20025;-76
2022/07/31 00:23:09;;;;;;;5.95;4.70;;;;;;;17.86;100.00;100848.16;5195583;28;20057;-76
2022/07/31 00:25:40;;;;;;;6.13;4.20;;;;;;;17.92;100.00;100847.78;5179417;28;20033;-75
2022/07/31 00:28:10;;;;;;;7.68;4.50;;;;;;;17.86;100.00;100851.63;5163142;28;20037;-75
2022/07/31 00:30:41;;;;;;;8.48;4.85;;;;;;;17.87;100.00;100848.09;5197507;28;20463;-76
2022/07/31 00:33:11;;;;;;;8.75;4.80;;;;;;;17.79;100.00;100841.56;5196081;28;20443;-75
2022/07/31 00:35:41;;;;;;;8.30;4.75;;;;;;;17.69;100.00;100835.13;5195892;28;20033;-75
2022/07/31 00:38:12;;;;;;;9.57;4.85;;;;;;;17.57;100.00;100841.13;5196330;28;20141;-75
2022/07/31 00:40:49;;;;;;;9.90;4.68;;;;;;;17.62;100.00;100839.09;5193749;28;20041;-76
2022/07/31 00:43:19;;;;;;;9.00;6.13;;;;;;;17.68;100.00;100844.00;5179619;28;20056;-75
2022/07/31 00:45:51;;;;;;;8.63;5.75;;;;;;;17.62;100.00;100852.31;5195900;28;20052;-76
2022/07/31 00:48:21;;;;;;;14.57;5.93;;;;;;;17.60;100.00;100859.44;5183131;28;20475;-75
2022/07/31 00:50:52;;;;;;;7.10;5.25;;;;;;;17.35;100.00;100861.84;5178840;28;20040;-76
2022/07/31 00:53:22;;;;;;;9.73;6.75;;;;;;;17.33;100.00;100861.88;5197294;28;20022;-76
2022/07/31 00:55:53;;;;;;;12.48;6.20;;;;;;;17.28;100.00;100866.59;5195788;28;20029;-76
2022/07/31 00:58:24;;;;;;;12.82;6.63;;;;;;;17.38;100.00;100866.94;5195544;28;20479;-75
2022/07/31 01:00:54;;;;;;;8.88;6.03;;;;;;;17.48;100.00;100865.47;5196964;28;20369;-76
2022/07/31 01:03:25;;;;;;;12.68;6.20;;;;;;;17.61;100.00;100862.00;5197738;28;20036;-76
2022/07/31 01:05:55;;;;;;;8.07;5.32;;;;;;;17.57;100.00;100857.84;5196007;28;20090;-75
2022/07/31 01:08:26;;;;;;;11.20;6.28;;;;;;;17.48;100.00;100861.03;5199784;28;20025;-76
2022/07/31 01:11:12;;;;;;;10.13;6.07;;;;;;;17.40;100.00;100873.00;5201256;28;20061;-75
2022/07/31 01:13:57;;;;;;;9.75;5.88;;;;;;;17.54;100.00;100873.91;5197609;28;20098;-76
2022/07/31 01:16:32;;;;;;;7.28;5.40;;;;;;;17.48;100.00;100879.53;5198713;28;20035;-76
2022/07/31 01:19:32;;;;;;;10.18;5.88;;;;;;;17.52;100.00;100878.41;5201048;28;20116;-76
2022/07/31 01:22:40;;;;;;;10.73;6.78;;;;;;;17.42;100.00;100885.19;5200755;28;20116;-76
2022/07/31 01:25:27;;;;;;;11.63;6.93;;;;;;;17.51;100.00;100881.97;5199164;28;20026;-75
2022/07/31 01:28:32;;;;;;;11.05;7.88;;;;;;;17.53;100.00;100877.50;5199815;28;20120;-76
2022/07/31 01:31:08;;;;;;;10.15;8.25;;;;;;;17.59;100.00;100881.53;5199355;28;20025;-75
2022/07/31 01:33:49;;;;;;;9.98;8.23;;;;;;;17.56;100.00;100879.06;5201157;28;20021;-76
2022/07/31 01:36:24;;;;;;;10.48;7.95;;;;;;;17.63;100.00;100880.44;5198841;28;20029;-76
2022/07/31 01:38:56;;;;;;;9.27;8.20;;;;;;;17.62;100.00;100876.09;5199711;28;20033;-76
2022/07/31 01:41:32;;;;;;;12.63;7.95;;;;;;;17.67;100.00;100877.50;5199080;28;20033;-76
2022/07/31 01:44:05;;;;;;;10.68;8.65;;;;;;;17.61;100.00;100874.34;5183504;28;20516;-76
2022/07/31 01:46:37;;;;;;;13.98;9.40;;;;;;;17.66;100.00;100873.16;5197001;28;20471;-75
2022/07/31 01:49:10;;;;;;;13.70;8.30;;;;;;;17.74;100.00;100880.63;5198819;28;20029;-76
2022/07/31 01:51:43;;;;;;;14.63;9.50;;;;;;;17.68;100.00;100883.66;5198764;28;20153;-76
2022/07/31 01:54:17;;;;;;;10.30;7.82;;;;;;;17.86;100.00;100879.91;5201102;28;20112;-76
2022/07/31 01:56:48;;;;;;;17.13;9.93;;;;;;;17.82;100.00;100881.88;5198708;28;20029;-75
2022/07/31 01:59:20;;;;;;;12.73;9.40;;;;;;;17.74;100.00;100881.50;5198843;28;20030;-76
2022/07/31 02:01:51;;;;;;;13.15;8.73;;;;;;;17.84;100.00;100882.63;5198775;28;20397;-76
2022/07/31 02:04:24;;;;;;;12.80;9.10;;;;;;;17.83;100.00;100874.81;5198948;28;20040;-76
2022/07/31 02:06:55;;;;;;;13.30;9.10;;;;;;;17.80;100.00;100870.53;5198436;28;20411;-76
2022/07/31 02:09:27;;;;;;;13.32;9.10;;;;;;;17.72;100.00;100869.28;5182342;28;20029;-76
2022/07/31 02:11:59;;;;;;;11.73;9.38;;;;;;;17.77;100.00;100870.72;5198954;28;20451;-76
2022/07/31 02:14:30;;;;;;;10.90;8.27;;;;;;;17.82;100.00;100865.16;5180849;28;21626;-75
2022/07/31 02:17:01;;;;;;;12.68;8.85;;;;;;;17.67;100.00;100868.72;5182209;28;20025;-76
2022/07/31 02:19:34;;;;;;;10.00;8.18;;;;;;;17.73;100.00;100863.06;5198864;28;20036;-76
2022/07/31 02:22:06;;;;;;;10.60;8.68;;;;;;;17.67;100.00;100866.91;5195098;28;20021;-75
2022/07/31 02:24:36;;;;;;;11.93;8.27;;;;;;;17.65;100.00;100867.97;5198517;28;20498;-76
2022/07/31 02:27:08;;;;;;;12.88;8.65;;;;;;;17.68;100.00;100871.25;5206835;23;20098;-75
2022/07/31 02:29:40;;;;;;;12.98;9.07;;;;;;;17.53;100.00;100871.34;5216379;28;20063;-75
2022/07/31 02:32:13;;;;;;;11.93;9.30;;;;;;;17.51;100.00;100858.19;5220360;28;20053;-73
2022/07/31 02:34:44;;;;;;;12.80;9.43;;;;;;;17.59;100.00;100865.66;5219004;28;20036;-75
2022/07/31 02:37:16;;;;;;;13.20;9.77;;;;;;;17.54;100.00;100863.31;5218663;28;20035;-75
2022/07/31 02:39:48;;;;;;;14.43;9.90;;;;;;;17.38;100.00;100872.22;5219644;28;20035;-75
2022/07/31 02:42:20;;;;;;;12.88;10.30;;;;;;;17.36;100.00;100871.47;5218290;28;20017;-75
2022/07/31 02:44:51;;;;;;;14.95;9.57;;;;;;;17.29;100.00;100878.88;5217434;28;20152;-75
2022/07/31 02:47:22;;;;;;;13.05;9.32;;;;;;;17.44;100.00;100871.84;5218873;28;20048;-75
2022/07/31 02:49:54;;;;;;;16.13;9.82;;;;;;;17.30;100.00;100864.72;5218028;28;20116;-75
2022/07/31 02:52:25;;;;;;;12.25;9.82;;;;;;;17.36;100.00;100868.84;5218461;28;20048;-75
2022/07/31 02:54:57;;;;;;;13.38;9.30;;;;;;;17.43;100.00;100862.22;5218328;28;20037;-75
2022/07/31 02:57:28;;;;;;;11.15;8.95;;;;;;;17.42;100.00;100873.75;5219211;28;20475;-75
2022/07/31 02:59:58;;;;;;;15.82;9.70;;;;;;;17.32;100.00;100862.84;5219720;28;20035;-76
2022/07/31 03:02:29;;;;;;;11.23;9.20;;;;;;;17.40;100.00;100863.28;5219666;28;20390;-75
2022/07/31 03:05:00;;;;;;;13.25;8.82;;;;;;;17.34;100.00;100853.06;5219548;28;20035;-74
2022/07/31 03:07:30;;;;;;;15.30;10.18;;;;;;;17.17;100.00;100860.25;5218685;28;20028;-74
2022/07/31 03:10:00;;;;;;;16.27;10.35;;;;;;;17.03;100.00;100860.19;5201109;28;20056;-75
2022/07/31 03:12:31;;;;;;;11.80;10.10;;;;;;;16.92;100.00;100854.66;5217501;28;20035;-75
2022/07/31 03:15:03;;;;;;;13.63;10.57;;;;;;;16.87;100.00;100854.06;5219025;28;20033;-76
2022/07/31 03:17:33;;;;;;;12.40;10.82;;;;;;;16.79;100.00;100856.31;5217223;28;20398;-75
2022/07/31 03:20:05;;;;;;;11.75;10.27;;;;;;;16.94;100.00;100847.53;5217188;28;20346;-75
2022/07/31 03:22:38;;;;;;;13.57;11.13;;;;;;;16.83;100.00;100852.56;5217838;28;20154;-75
2022/07/31 03:25:10;;;;;;;14.07;10.90;;;;;;;16.71;100.00;100853.22;5217823;28;20097;-74
2022/07/31 03:27:40;;;;;;;13.50;10.60;;;;;;;16.88;100.00;100840.78;5217371;28;20020;-74
2022/07/31 03:30:17;;;;;;;13.43;10.48;;;;;;;16.79;100.00;100843.13;5218508;28;20418;-75
2022/07/31 03:32:47;;;;;;;13.93;10.23;;;;;;;16.95;100.00;100841.31;5219150;28;20508;-75
2022/07/31 03:35:18;;;;;;;13.93;9.88;;;;;;;16.88;100.00;100847.84;5217865;28;20028;-75
2022/07/31 03:37:49;;;;;;;10.93;9.02;;;;;;;17.02;100.00;100847.91;5217042;28;20037;-75
2022/07/31 03:40:20;;;;;;;13.25;8.95;;;;;;;17.09;100.00;100846.63;5217397;28;20352;-75
2022/07/31 03:42:52;;;;;;;14.90;9.55;;;;;;;16.98;100.00;100846.41;5218095;28;20421;-75
2022/07/31 03:45:23;;;;;;;17.38;10.55;;;;;;;16.77;100.00;100847.63;5218944;28;20083;-74
2022/07/31 03:47:53;;;;;;;15.98;10.25;;;;;;;16.77;100.00;100858.19;5216824;28;20037;-75
2022/07/31 03:50:24;;;;;;;14.57;10.52;;;;;;;16.97;100.00;100855.25;5217486;28;20512;-75
2022/07/31 03:52:57;;;;;;;15.05;10.88;;;;;;;16.79;100.00;100841.31;5200639;28;20442;-74
2022/07/31 03:55:27;;;;;;;14.55;10.45;;;;;;;16.73;100.00;100840.78;5217408;28;20267;-75
2022/07/31 03:57:58;;;;;;;13.63;10.45;;;;;;;16.89;100.00;100841.63;5217957;28;20664;-75
2022/07/31 04:00:29;;;;;;;11.93;10.38;;;;;;;16.58;100.00;100846.94;5217009;28;20025;-74
2022/07/31 04:03:06;;;;;;;14.70;10.68;;;;;;;16.71;100.00;100847.13;5216552;28;20052;-75
2022/07/31 04:05:37;;;;;;;12.82;10.15;;;;;;;16.53;100.00;100851.63;5213387;28;20025;-75
2022/07/31 04:08:08;;;;;;;14.05;10.10;;;;;;;16.41;100.00;100865.47;5216155;28;20115;-75
2022/07/31 04:10:39;;;;;;;14.50;10.10;;;;;;;16.43;100.00;100863.63;5216858;28;20104;-75
2022/07/31 04:13:09;;;;;;;10.88;9.23;;;;;;;16.33;100.00;100858.88;5216851;28;20585;-75
2022/07/31 04:15:39;;;;;;;11.85;10.05;;;;;;;16.36;100.00;100859.63;5216524;28;20543;-75
2022/07/31 04:18:10;;;;;;;14.38;10.05;;;;;;;16.16;100.00;100866.84;5216061;28;20436;-75
2022/07/31 04:20:40;;;;;;;11.95;9.82;;;;;;;16.31;100.00;100866.91;5217062;28;20029;-75
2022/07/31 04:23:10;;;;;;;11.23;9.80;;;;;;;16.19;100.00;100875.47;5217140;28;20573;-74
2022/07/31 04:25:41;;;;;;;12.77;9.73;;;;;;;16.40;100.00;100870.84;5216888;28;20029;-75
2022/07/31 04:28:11;;;;;;;12.63;9.95;;;;;;;16.30;100.00;100867.84;5216215;28;20226;-74
2022/07/31 04:30:42;;;;;;;14.48;10.00;;;;;;;16.37;100.00;100863.94;5216702;28;20497;-75
2022/07/31 04:33:13;;;;;;;14.38;10.60;;;;;;;16.38;100.00;100863.00;5217975;28;20025;-75
2022/07/31 04:35:44;;;;;;;10.95;9.52;;;;;;;16.67;100.00;100857.00;5216868;28;20028;-75
2022/07/31 04:38:15;;;;;;;14.70;10.65;;;;;;;16.81;100.00;100859.72;5218170;28;20028;-75
2022/07/31 04:40:47;;;;;;;15.70;11.32;;;;;;;16.94;100.00;100856.28;5216729;28;20342;-75
2022/07/31 04:43:18;;;;;;;10.85;9.13;;;;;;;17.77;100.00;100861.94;5217256;28;20317;-75
2022/07/31 04:45:48;;;;;;;13.45;9.18;;;;;;;18.62;100.00;100855.69;5220896;28;20521;-75
2022/07/31 04:48:19;;;;;;;13.55;7.88;;;;;;;19.53;100.00;100846.91;5220493;28;20040;-75
2022/07/31 04:50:49;;;;;;;9.85;6.82;;;;;;;19.96;100.00;100843.84;5220886;28;20028;-75
2022/07/31 04:53:20;;;;;;;9.48;6.72;;;;;;;21.61;95.20;100835.06;5222160;28;20029;-76
2022/07/31 04:58:39;;;;;;;8.80;6.00;;;;;;;22.08;88.57;100850.06;5218439;28;20131;-75
2022/07/31 05:01:09;;;;;;;9.52;6.32;;;;;;;21.39;94.77;100847.50;5221904;28;20106;-75
2022/07/31 05:03:40;;;;;;;6.95;5.45;;;;;;;21.10;95.54;100851.47;5220357;28;20033;-75
2022/07/31 05:06:11;;;;;;;10.20;6.40;;;;;;;20.65;99.45;100853.97;5219770;28;20493;-75
2022/07/31 05:08:42;;;;;;;10.23;7.30;;;;;;;19.86;100.00;100860.53;5220149;28;20059;-75
2022/07/31 05:11:22;;;;;;;10.27;7.45;;;;;;;19.53;100.00;100857.50;5222144;28;20028;-76
2022/07/31 05:13:56;;;;;;;9.90;7.68;;;;;;;19.42;100.00;100871.50;5219883;28;20060;-75
2022/07/31 05:16:28;;;;;;;12.20;7.43;;;;;;;20.30;100.00;100856.47;5219841;28;20031;-75
2022/07/31 05:18:59;;;;;;;8.35;6.40;;;;;;;22.83;92.35;100850.16;5185957;28;20107;-75
2022/07/31 05:21:29;;;;;;;11.00;4.88;;;;;;;23.38;91.62;100858.81;5221769;28;20016;-75
2022/07/31 05:24:00;;;;;;;12.65;5.70;;;;;;;23.51;87.10;100862.16;5220434;28;20138;-75
2022/07/31 05:26:31;;;;;;;9.07;5.50;;;;;;;23.51;86.16;100859.47;5219459;28;20024;-72
2022/07/31 05:29:02;;;;;;;6.88;4.60;;;;;;;24.64;81.74;100854.91;5219899;28;20025;-75
2022/07/31 05:31:33;;;;;;;9.90;4.45;;;;;;;24.13;82.86;100849.66;5221495;28;20046;-75
2022/07/31 05:34:03;;;;;;;8.38;4.55;;;;;;;22.59;91.03;100868.09;5221658;28;20025;-75
2022/07/31 05:36:33;;;;;;;9.02;4.22;;;;;;;23.31;87.50;100867.44;5219648;28;20301;-75
2022/07/31 05:39:05;;;;;;;8.13;4.68;;;;;;;22.78;89.41;100877.19;5219715;28;20354;-75
2022/07/31 05:41:35;;;;;;;7.57;4.40;;;;;;;23.58;86.76;100873.16;5218982;28;20028;-75
2022/07/31 05:44:05;;;;;;;9.90;4.30;;;;;;;25.61;80.73;100856.56;5220835;28;20039;-75
2022/07/31 05:46:36;;;;;;;6.13;3.95;;;;;;;27.62;73.67;100848.22;5218664;28;20059;-75
2022/07/31 05:49:06;;;;;;;9.60;4.07;;;;;;;27.36;74.20;100839.25;5219507;28;20352;-75
2022/07/31 05:51:37;;;;;;;6.70;3.80;;;;;;;27.64;73.09;100838.16;5219688;28;20528;-75
2022/07/31 05:54:07;;;;;;;10.15;4.20;;;;;;;28.10;69.22;100827.06;5218287;28;20017;-76
2022/07/31 05:56:37;;;;;;;13.95;5.05;;;;;;;30.08;62.84;100820.38;5220703;28;20105;-76
2022/07/31 05:59:08;;;;;;;10.43;3.90;;;;;;;30.33;63.91;100821.13;5220742;28;20444;-75
2022/07/31 06:01:38;;;;;;;12.52;5.15;;;;;;;27.19;71.28;100829.38;5219491;28;20588;-76
2022/07/31 06:04:09;;;;;;;10.63;4.82;;;;;;;27.28;70.82;100825.78;5219481;28;20119;-75
2022/07/31 06:06:39;;;;;;;13.63;5.15;;;;;;;26.10;74.82;100834.91;5217910;28;20032;-75
2022/07/31 06:09:10;;;;;;;15.73;5.60;;;;;;;25.94;77.63;100827.50;5213307;28;20025;-75
2022/07/31 06:11:40;;;;;;;12.77;5.55;;;;;;;23.96;82.95;100828.03;5219725;28;20028;-74
2022/07/31 06:14:11;;;;;;;11.15;5.72;;;;;;;23.00;88.38;100833.63;5219490;28;20021;-75
2022/07/31 06:16:41;;;;;;;12.48;6.55;;;;;;;22.55;89.92;100833.84;5217186;28;20040;-75
2022/07/31 06:19:11;;;;;;;13.20;5.90;;;;;;;22.24;92.29;100831.91;5217766;28;20041;-75
2022/07/31 06:21:42;;;;;;;12.20;6.47;;;;;;;21.53;95.56;100832.16;5218642;28;20033;-75
2022/07/31 06:24:12;;;;;;;12.80;6.07;;;;;;;21.26;100.00;100828.94;5220292;28;20028;-75
2022/07/31 06:26:42;;;;;;;12.52;5.82;;;;;;;21.30;100.00;100830.41;5218281;28;20131;-73
2022/07/31 06:29:13;;;;;;;12.30;5.63;;;;;;;21.49;98.03;100829.84;5219657;28;20766;-75
2022/07/31 06:31:43;;;;;;;9.52;5.75;;;;;;;21.43;99.78;100830.31;5218470;28;20025;-75
2022/07/31 06:34:14;;;;;;;14.50;5.82;;;;;;;21.54;99.60;100827.72;5218442;28;20060;-75
2022/07/31 06:36:44;;;;;;;14.30;6.70;;;;;;;21.49;100.00;100822.72;5217728;28;20075;-74
2022/07/31 06:39:16;;;;;;;12.85;6.63;;;;;;;20.95;100.00;100824.22;5219485;28;20029;-75
2022/07/31 06:41:46;;;;;;;12.60;6.80;;;;;;;21.08;100.00;100825.00;5216499;28;20067;-75
2022/07/31 06:44:18;;;;;;;16.67;7.13;;;;;;;20.99;100.00;100822.16;5218076;28;20056;-75
2022/07/31 06:46:49;;;;;;;14.68;6.80;;;;;;;21.00;100.00;100823.88;5219279;28;20052;-75
2022/07/31 06:49:19;;;;;;;14.38;6.55;;;;;;;21.07;100.00;100817.97;5217725;28;20074;-75
2022/07/31 06:51:49;;;;;;;15.30;6.60;;;;;;;21.15;100.00;100825.38;5218725;28;20029;-75
2022/07/31 06:54:20;;;;;;;12.75;6.53;;;;;;;21.34;100.00;100821.22;5218474;28;20131;-75
2022/07/31 06:56:50;;;;;;;15.80;6.70;;;;;;;21.48;100.00;100814.84;5217483;28;20095;-75
2022/07/31 06:59:20;;;;;;;14.23;5.78;;;;;;;21.71;99.00;100812.16;5217701;28;20032;-75
2022/07/31 07:01:51;;;;;;;15.30;6.18;;;;;;;21.57;99.84;100811.50;5220216;28;20025;-74
2022/07/31 07:04:21;;;;;;;12.40;5.40;;;;;;;21.52;99.73;100808.31;5218288;28;20127;-74
2022/07/31 07:06:52;;;;;;;14.57;6.07;;;;;;;21.71;98.79;100813.97;5216350;28;20406;-75
2022/07/31 07:09:22;;;;;;;13.98;6.40;;;;;;;21.89;98.22;100809.88;5218949;28;20550;-75
2022/07/31 07:11:52;;;;;;;14.10;6.20;;;;;;;22.02;97.28;100807.94;5217272;28;20028;-75
2022/07/31 07:14:23;;;;;;;13.77;6.00;;;;;;;22.36;95.57;100812.28;5217725;28;20043;-75
2022/07/31 07:16:53;;;;;;;15.95;7.03;;;;;;;22.07;96.72;100805.78;5184426;28;20037;-75
2022/07/31 07:19:23;;;;;;;16.20;6.68;;;;;;;22.20;94.41;100806.47;5218909;28;20108;-75
2022/07/31 07:21:54;;;;;;;16.88;6.40;;;;;;;22.18;94.70;100798.63;5219213;28;20024;-75
2022/07/31 07:24:24;;;;;;;13.30;6.10;;;;;;;22.31;95.83;100811.81;5219754;28;20028;-75
2022/07/31 07:26:54;;;;;;;16.60;6.38;;;;;;;22.30;95.21;100810.97;5217124;28;20025;-75
2022/07/31 07:29:25;;;;;;;10.85;5.97;;;;;;;22.31;95.01;100810.00;5216929;28;20083;-75
2022/07/31 07:31:55;;;;;;;20.58;6.40;;;;;;;22.24;93.24;100800.78;5218773;28;20245;-75
2022/07/31 07:34:26;;;;;;;11.55;6.20;;;;;;;22.47;93.58;100804.31;5217438;28;20337;-75
2022/07/31 07:36:56;;;;;;;13.98;5.80;;;;;;;22.43;95.30;100801.03;5216999;28;20025;-75
2022/07/31 07:39:27;;;;;;;10.07;4.72;;;;;;;22.66;93.74;100791.19;5216739;28;20025;-75
2022/07/31 07:41:57;;;;;;;10.45;4.47;;;;;;;22.93;91.00;100798.63;5218122;28;20027;-75
2022/07/31 07:44:27;;;;;;;6.93;3.95;;;;;;;23.39;87.92;100795.63;5216083;28;20027;-75
2022/07/31 07:46:58;;;;;;;8.02;4.38;;;;;;;23.46;87.09;100802.13;5215356;28;20130;-75
2022/07/31 07:49:28;;;;;;;7.80;4.40;;;;;;;23.29;86.84;100794.69;5220049;28;20036;-73
2022/07/31 07:51:58;;;;;;;9.25;3.92;;;;;;;23.39;87.86;100796.47;5219006;28;20483;-75
2022/07/31 07:54:29;;;;;;;11.60;4.35;;;;;;;23.36;87.50;100802.06;5217481;28;20033;-75
2022/07/31 07:56:59;;;;;;;8.05;4.60;;;;;;;23.82;85.63;100794.53;5217056;28;20027;-75
2022/07/31 07:59:30;;;;;;;8.32;4.72;;;;;;;24.02;85.84;100790.94;5217897;28;20025;-74
2022/07/31 08:02:00;;;;;;;11.45;5.53;;;;;;;23.55;84.58;100793.34;5216831;28;20025;-74
2022/07/31 08:04:30;;;;;;;7.60;4.68;;;;;;;23.65;83.79;100786.22;5216564;28;20386;-74
2022/07/31 08:07:02;;;;;;;9.93;4.07;;;;;;;23.72;87.05;100793.56;5201464;28;20769;-73
2022/07/31 08:09:34;;;;;;;8.07;4.63;;;;;;;23.64;85.20;100792.53;5217281;28;20078;-75
2022/07/31 08:12:04;;;;;;;8.45;5.43;;;;;;;23.70;83.42;100778.69;5215337;28;20029;-75
2022/07/31 08:14:35;;;;;;;11.40;4.78;;;;;;;23.50;85.64;100792.91;5218159;28;20372;-75
2022/07/31 08:17:10;;;;;;;8.85;4.35;;;;;;;23.64;85.32;100796.06;5218554;28;20033;-75
2022/07/31 08:19:41;;;;;;;10.23;4.25;;;;;;;23.11;87.79;100786.44;5220163;28;20585;-75
2022/07/31 08:22:11;;;;;;;10.32;4.32;;;;;;;23.13;87.86;100788.97;5220508;28;20135;-74
2022/07/31 08:24:42;;;;;;;8.60;4.65;;;;;;;23.36;83.38;100790.56;5217111;28;20409;-75
2022/07/31 08:27:26;;;;;;;9.40;4.20;;;;;;;23.39;84.94;100793.78;5219428;28;20025;-74
2022/07/31 08:29:59;;;;;;;7.15;3.30;;;;;;;22.88;88.89;100784.78;5213076;28;20021;-75
2022/07/31 08:32:29;;;;;;;7.10;3.90;;;;;;;23.30;87.64;100780.38;5216359;28;20499;-74
2022/07/31 08:34:59;;;;;;;8.40;3.67;;;;;;;23.18;86.21;100787.59;5217333;28;20080;-75
2022/07/31 08:37:30;;;;;;;6.00;3.47;;;;;;;23.54;83.85;100789.81;5215447;28;20421;-74
2022/07/31 08:40:00;;;;;;;8.93;4.25;;;;;;;23.34;83.63;100787.19;5212422;28;20474;-74
2022/07/31 08:42:31;;;;;;;8.07;3.10;;;;;;;23.81;80.85;100782.13;5216656;28;20029;-74
2022/07/31 08:45:04;;;;;;;9.73;3.35;;;;;;;24.54;79.34;100768.50;5222950;28;20032;-75
2022/07/31 08:47:35;;;;;;;6.90;3.28;;;;;;;25.46;76.88;100773.16;5199897;28;20036;-73
2022/07/31 08:50:06;;;;;;;7.22;3.00;;;;;;;25.77;73.14;100765.75;5217657;28;20033;-75
2022/07/31 08:52:41;;;;;;;5.63;2.67;;;;;;;27.65;68.55;100764.63;5217221;28;20244;-75
2022/07/31 08:55:12;;;;;;;7.50;2.83;;;;;;;27.99;66.15;100771.72;5219594;28;20234;-75
2022/07/31 08:57:46;;;;;;;4.68;2.10;;;;;;;29.43;63.08;100769.41;5217499;28;20029;-75
2022/07/31 09:00:18;;;;;;;5.72;2.08;;;;;;;31.41;59.58;100753.31;5217946;28;20394;-76
2022/07/31 09:02:51;;;;;;;8.77;2.45;;;;;;;29.08;61.04;100758.97;5215089;28;20033;-75
2022/07/31 09:05:23;;;;;;;5.68;2.20;;;;;;;30.54;58.93;100756.59;5218195;28;20039;-75
2022/07/31 09:07:53;;;;;;;4.63;2.00;;;;;;;30.38;60.04;100749.44;5216006;28;20567;-75
2022/07/31 09:10:26;;;;;;;8.57;2.25;;;;;;;29.81;58.69;100745.28;5216391;28;20037;-76
2022/07/31 09:12:57;;;;;;;4.90;2.20;;;;;;;28.55;62.80;100746.91;5217034;28;20486;-75
2022/07/31 09:15:29;;;;;;;6.50;2.30;;;;;;;28.90;64.09;100737.59;5218670;28;20094;-75
2022/07/31 09:18:00;;;;;;;6.50;2.60;;;;;;;28.88;63.89;100744.13;5214003;28;20463;-75
2022/07/31 09:20:31;;;;;;;5.18;2.47;;;;;;;29.28;63.38;100746.84;5214197;28;20087;-75
2022/07/31 09:23:07;;;;;;;9.20;2.55;;;;;;;28.89;62.33;100735.06;5214492;28;20305;-75
2022/07/31 09:25:37;;;;;;;;;;;;;;;27.93;64.43;100741.97;5214865;28;20060;-75
2022/07/31 09:28:07;;;;;;;6.43;1.77;;;;;;;28.78;62.75;100721.91;5210539;28;20012;-74
2022/07/31 09:30:38;;;;;;;4.95;1.70;;;;;;;28.01;62.85;100740.16;5218287;28;20284;-75
2022/07/31 09:33:16;;;;;;;5.93;1.50;;;;;;;29.02;60.41;100725.47;5217281;28;20470;-74
2022/07/31 09:35:48;;;;;;;4.80;1.70;;;;;;;28.42;60.00;100720.50;5215203;28;20145;-75
2022/07/31 09:38:19;;;;;;;5.47;1.50;;;;;;;29.68;60.79;100714.47;5214337;28;20494;-75
2022/07/31 09:40:49;;;;;;;5.45;1.30;;;;;;;29.00;59.36;100714.03;5218142;28;20041;-75
2022/07/31 09:43:23;;;;;;;5.68;1.42;;;;;;;29.04;59.98;100711.84;5197862;28;20037;-75
2022/07/31 09:46:00;;;;;;;3.33;1.33;;;;;;;28.52;58.92;100710.44;5216598;28;20353;-75
2022/07/31 09:48:32;;;;;;;4.18;1.30;;;;;;;30.16;57.27;100708.91;5217294;28;20368;-75
2022/07/31 09:51:06;;;;;;;5.93;1.60;;;;;;;30.95;55.88;100716.53;5217730;28;20037;-75
2022/07/31 09:53:44;;;;;;;2.63;1.10;;;;;;;31.38;55.53;100706.88;5197339;28;20481;-76
2022/07/31 09:56:14;;;;;;;3.95;1.30;;;;;;;31.56;54.66;100697.38;5217093;28;20067;-75
2022/07/31 09:58:45;;;;;;;3.20;1.23;;;;;;;30.16;55.43;100701.69;5216724;28;20108;-75
2022/07/31 10:01:17;;;;;;;4.72;1.50;;;;;;;29.78;55.79;100698.94;5217469;28;20073;-75
2022/07/31 10:03:50;;;;;;;2.30;1.10;;;;;;;30.11;57.33;100697.81;5218613;28;20056;-73
2022/07/31 10:06:24;;;;;;;3.65;1.45;;;;;;;30.20;58.69;100696.75;5216885;28;20082;-74
2022/07/31 10:08:55;;;;;;;2.95;1.52;;;;;;;28.93;59.87;100698.72;5214384;28;20020;-75
2022/07/31 10:11:29;;;;;;;4.45;1.45;;;;;;;28.62;58.16;100697.66;5200008;28;20063;-75
2022/07/31 10:14:01;;;;;;;5.28;1.15;;;;;;;28.56;60.17;100690.25;5216480;28;20037;-75
2022/07/31 10:16:38;;;;;;;3.58;1.38;;;;;;;28.64;58.97;100692.13;5215608;28;20041;-75
2022/07/31 10:19:11;;;;;;;3.97;1.30;;;;;;;29.15;58.75;100693.50;5215370;28;20028;-74
2022/07/31 10:21:49;;;;;;;5.72;1.70;;;;;;;29.23;57.85;100695.34;5216283;28;20489;-75
2022/07/31 10:24:21;;;;;;;6.32;1.60;;;;;;;28.45;58.49;100687.06;5218745;28;20025;-75
2022/07/31 10:26:57;;;;;;;5.93;1.48;;;;;;;29.11;58.53;100675.16;5215949;28;20044;-75
2022/07/31 10:29:28;;;;;;;4.03;1.40;;;;;;;28.94;57.60;100676.19;5216642;28;20386;-75
2022/07/31 10:32:00;;;;;;;5.45;1.70;;;;;;;28.39;58.85;100672.41;5216373;28;20052;-75
2022/07/31 10:34:32;;;;;;;4.10;1.80;;;;;;;28.37;58.47;100682.50;5217946;28;20086;-75
2022/07/31 10:37:15;;;;;;;4.55;1.85;;;;;;;28.59;60.38;100679.16;5216253;28;20059;-74
2022/07/31 10:40:24;;;;;;;5.15;1.90;;;;;;;27.82;62.66;100670.50;5215237;28;20082;-75
2022/07/31 10:43:12;;;;;;;3.80;1.65;;;;;;;27.70;61.34;100663.72;5174384;28;20037;-75
2022/07/31 10:45:52;;;;;;;7.05;1.50;;;;;;;28.38;59.70;100659.13;5214859;28;20040;-75
2022/07/31 10:48:23;;;;;;;5.60;1.77;;;;;;;28.47;59.34;100658.13;5216119;28;20048;-75
2022/07/31 10:51:08;;;;;;;4.40;1.50;;;;;;;28.45;56.57;100650.22;5216073;28;20090;-75
2022/07/31 10:53:39;;;;;;;4.78;1.48;;;;;;;28.50;56.14;100652.41;5212287;28;20071;-75
2022/07/31 10:56:12;;;;;;;6.93;1.90;;;;;;;28.50;60.44;100650.56;5216001;28;20115;-75
2022/07/31 10:58:48;;;;;;;3.00;1.65;;;;;;;28.08;58.30;100646.25;5217456;28;20048;-75
2022/07/31 11:01:19;;;;;;;2.97;1.52;;;;;;;28.31;62.22;100637.41;5217915;28;20440;-75
2022/07/31 11:03:53;;;;;;;3.97;1.80;;;;;;;28.11;61.85;100641.38;5217405;28;20049;-74
2022/07/31 11:06:25;;;;;;;4.82;1.67;;;;;;;28.21;60.18;100641.25;5215824;28;20103;-75
2022/07/31 11:08:56;;;;;;;6.20;1.80;;;;;;;28.04;58.82;100645.75;5215209;28;20047;-75
2022/07/31 11:11:35;;;;;;;5.15;1.83;;;;;;;27.72;60.76;100634.88;5216077;28;20021;-75
2022/07/31 11:14:05;;;;;;;4.88;1.95;;;;;;;27.74;59.97;100642.75;5211456;28;20055;-75
2022/07/31 11:16:36;;;;;;;8.40;2.38;;;;;;;27.37;61.30;100645.78;5213921;28;20375;-74
2022/07/31 11:19:08;;;;;;;9.38;2.25;;;;;;;27.18;61.97;100637.94;5215267;28;20059;-75
2022/07/31 11:21:40;;;;;;;4.85;1.88;;;;;;;27.45;62.93;100629.69;5215311;28;20041;-74
2022/07/31 11:24:22;;;;;;;8.85;1.95;;;;;;;27.31;59.54;100632.97;5216560;28;20068;-74
2022/07/31 11:26:54;;;;;;;4.97;1.65;;;;;;;27.73;62.84;100627.66;5219084;28;20036;-75
2022/07/31 11:29:27;;;;;;;5.28;1.88;;;;;;;27.33;61.92;100631.00;5218548;28;20513;-74
2022/07/31 11:32:00;;;;;;;4.38;1.85;;;;;;;27.51;61.39;100623.69;5220269;28;20413;-75
2022/07/31 11:34:42;;;;;;;5.55;1.80;;;;;;;27.88;62.85;100613.44;5201677;28;20399;-74
2022/07/31 11:37:19;;;;;;;9.68;1.70;;;;;;;27.88;59.86;100610.75;5215612;28;20293;-74
2022/07/31 11:39:51;;;;;;;4.65;1.70;;;;;;;27.89;63.24;100604.38;5217862;28;20102;-74
2022/07/31 11:42:23;;;;;;;5.93;2.00;;;;;;;28.01;61.33;100604.91;5219549;28;20627;-75